Time;durP1;ratioP1;P1;durP2;ratioP2;P2;SDS_P1;SDS_P2;PMS_P1;PMS_P2;Temp;Humidity;BMP_temperature;BMP_pressure;BME280_temperature;BME280_humidity;BME280_pressure;Samples;Min_cycle;Max_cycle;Signal;HPM_P1;HPM_P2
2022/06/30 00:00:26;;;;;;;4.82;1.50;;;19.20;44.10;;;;;;5089996;28;20055;-51
2022/06/30 00:02:52;;;;;;;2.13;1.58;;;19.10;44.40;;;;;;5076523;28;20035;-52
2022/06/30 00:05:17;;;;;;;1.95;1.50;;;19.20;44.80;;;;;;5107735;28;20114;-54
2022/06/30 00:07:43;;;;;;;2.67;1.67;;;19.10;44.50;;;;;;5073781;28;20570;-49
2022/06/30 00:10:11;;;;;;;2.60;1.40;;;19.10;45.20;;;;;;5107978;28;20055;-52
2022/06/30 00:12:37;;;;;;;1.73;1.38;;;19.20;45.50;;;;;;5083190;28;20035;-48
2022/06/30 00:15:04;;;;;;;1.67;1.48;;;19.20;46.20;;;;;;5088713;28;20115;-51
2022/06/30 00:17:29;;;;;;;2.15;1.50;;;19.20;46.00;;;;;;5083490;28;20059;-50
2022/06/30 00:19:54;;;;;;;2.88;1.55;;;19.30;45.70;;;;;;5107842;28;20027;-54
2022/06/30 00:22:20;;;;;;;1.42;1.33;;;19.30;46.30;;;;;;5097266;28;20085;-48
2022/06/30 00:24:46;;;;;;;1.60;1.42;;;19.40;46.40;;;;;;5089107;28;20024;-54
2022/06/30 00:27:11;;;;;;;2.22;1.52;;;19.40;46.00;;;;;;5102030;28;20114;-51
2022/06/30 00:29:37;;;;;;;5.15;2.00;;;19.50;46.60;;;;;;5088859;28;20052;-53
2022/06/30 00:32:03;;;;;;;2.42;1.92;;;19.40;47.70;;;;;;5106270;28;20080;-53
2022/06/30 00:34:28;;;;;;;3.55;1.40;;;19.50;47.50;;;;;;5109065;28;20459;-53
2022/06/30 00:36:55;;;;;;;2.05;1.80;;;19.50;48.10;;;;;;5093219;28;20059;-48
2022/06/30 00:39:20;;;;;;;1.60;1.50;;;19.50;47.80;;;;;;5112633;28;20491;-50
2022/06/30 00:41:46;;;;;;;2.70;1.83;;;19.50;48.00;;;;;;5095531;28;20047;-51
2022/06/30 00:44:15;;;;;;;2.20;1.75;;;19.50;48.40;;;;;;5112889;28;20456;-50
2022/06/30 00:46:41;;;;;;;2.25;1.73;;;19.50;49.80;;;;;;5094538;28;20035;-50
2022/06/30 00:49:07;;;;;;;2.15;1.90;;;19.50;50.30;;;;;;5112793;28;20024;-53
2022/06/30 00:51:33;;;;;;;1.88;1.77;;;19.60;51.50;;;;;;5093606;28;20036;-49
2022/06/30 00:54:01;;;;;;;2.92;1.95;;;19.60;51.10;;;;;;5112464;28;20020;-50
2022/06/30 00:56:29;;;;;;;2.55;1.88;;;19.60;51.10;;;;;;5091985;28;20024;-50
2022/06/30 00:58:59;;;;;;;3.75;2.10;;;19.70;52.60;;;;;;5112567;28;20035;-49
2022/06/30 01:01:26;;;;;;;3.58;2.03;;;19.60;52.70;;;;;;5064365;28;20038;-49
2022/06/30 01:03:53;;;;;;;2.42;1.70;;;19.70;55.50;;;;;;5112734;27;20463;-50
2022/06/30 01:06:20;;;;;;;4.03;1.90;;;19.70;54.60;;;;;;5090241;28;20039;-49
2022/06/30 01:08:46;;;;;;;2.97;2.35;;;19.70;54.90;;;;;;5112171;27;20107;-51
2022/06/30 01:13:56;;;;;;;3.30;1.90;;;19.80;56.10;;;;;;5091318;28;20392;-49
2022/06/30 01:16:22;;;;;;;2.88;2.20;;;19.80;55.40;;;;;;5089895;28;20028;-51
2022/06/30 01:18:48;;;;;;;2.28;2.05;;;19.80;55.80;;;;;;5110892;28;20386;-50
2022/06/30 01:21:13;;;;;;;2.13;1.90;;;19.80;56.00;;;;;;5092199;28;20028;-51
2022/06/30 01:23:39;;;;;;;1.80;1.60;;;19.80;56.50;;;;;;5070235;28;20300;-51
2022/06/30 01:26:04;;;;;;;2.58;1.85;;;19.90;56.70;;;;;;5106966;28;20446;-48
2022/06/30 01:28:30;;;;;;;2.95;1.95;;;19.80;58.70;;;;;;5089727;28;20043;-50
2022/06/30 01:30:56;;;;;;;1.90;1.80;;;19.80;57.10;;;;;;5092036;28;20391;-47
2022/06/30 01:33:22;;;;;;;3.80;2.45;;;19.90;57.10;;;;;;5075763;28;20024;-51
2022/06/30 01:35:47;;;;;;;3.25;2.28;;;19.90;57.30;;;;;;5110542;28;20028;-50
2022/06/30 01:38:13;;;;;;;3.05;1.95;;;19.90;58.10;;;;;;5074736;28;20024;-48
2022/06/30 01:40:39;;;;;;;2.97;1.90;;;19.90;59.20;;;;;;5109918;28;20036;-49
2022/06/30 01:43:06;;;;;;;3.33;1.58;;;19.90;60.00;;;;;;5076086;28;20488;-49
2022/06/30 01:45:32;;;;;;;4.70;2.00;;;20.00;59.70;;;;;;5110473;28;20019;-52
2022/06/30 01:47:58;;;;;;;3.10;1.88;;;20.00;59.70;;;;;;5076628;28;20040;-50
2022/06/30 01:50:28;;;;;;;2.13;1.90;;;20.00;60.40;;;;;;5109006;28;20435;-48
2022/06/30 01:52:53;;;;;;;4.05;2.60;;;20.00;60.60;;;;;;5077015;28;20524;-48
2022/06/30 01:55:19;;;;;;;4.35;1.98;;;20.00;61.20;;;;;;5110023;28;20157;-54
2022/06/30 01:57:45;;;;;;;2.50;1.92;;;19.90;62.10;;;;;;5100532;28;20114;-51
2022/06/30 02:00:15;;;;;;;2.58;1.80;;;19.90;62.70;;;;;;5092037;28;20068;-48
2022/06/30 02:02:41;;;;;;;2.85;2.15;;;19.90;62.90;;;;;;5099044;28;20395;-51
2022/06/30 02:05:07;;;;;;;3.17;1.88;;;19.90;63.00;;;;;;5091305;27;20021;-50
2022/06/30 02:07:36;;;;;;;4.03;2.00;;;19.90;63.00;;;;;;5108460;28;20027;-50
2022/06/30 02:10:07;;;;;;;4.32;2.30;;;19.90;64.20;;;;;;5090742;28;20032;-52
2022/06/30 02:12:45;;;;;;;2.50;2.10;;;19.90;64.20;;;;;;5081422;28;20039;-50
2022/06/30 02:15:14;;;;;;;3.63;2.13;;;19.90;64.50;;;;;;5068990;28;20397;-51
2022/06/30 02:17:40;;;;;;;3.08;1.90;;;19.90;64.30;;;;;;5108348;28;20110;-52
2022/06/30 02:20:07;;;;;;;2.25;1.90;;;19.90;64.80;;;;;;5091016;28;20032;-51
2022/06/30 02:22:33;;;;;;;3.83;2.20;;;19.90;64.30;;;;;;5107916;28;20506;-48
2022/06/30 02:24:59;;;;;;;2.72;2.28;;;19.90;64.30;;;;;;5090718;28;20063;-50
2022/06/30 02:27:24;;;;;;;4.40;2.10;;;19.90;64.30;;;;;;5100091;28;20100;-53
2022/06/30 02:29:53;;;;;;;2.25;2.05;;;19.90;64.80;;;;;;5110514;28;20019;-48
2022/06/30 02:32:19;;;;;;;2.67;2.10;;;19.90;65.40;;;;;;5094632;28;20111;-53
2022/06/30 02:34:45;;;;;;;3.50;2.20;;;19.90;66.40;;;;;;5110596;28;20020;-50
2022/06/30 02:37:10;;;;;;;3.08;2.10;;;19.90;66.40;;;;;;5093464;28;20015;-52
2022/06/30 02:39:36;;;;;;;2.50;2.30;;;19.90;66.80;;;;;;5110677;28;20067;-50
2022/06/30 02:42:01;;;;;;;2.20;1.90;;;19.90;67.00;;;;;;5092105;28;20036;-48
2022/06/30 02:44:27;;;;;;;2.00;1.80;;;19.90;67.30;;;;;;5110456;28;20089;-47
2022/06/30 02:46:54;;;;;;;2.92;2.33;;;19.90;67.80;;;;;;5090425;28;20032;-47
2022/06/30 02:49:20;;;;;;;2.88;2.20;;;19.90;68.10;;;;;;5110399;28;20019;-49
2022/06/30 02:51:46;;;;;;;5.03;2.03;;;19.80;68.90;;;;;;5089463;28;20233;-51
2022/06/30 02:54:12;;;;;;;2.53;2.03;;;19.80;68.70;;;;;;5110262;28;20229;-52
2022/06/30 02:56:37;;;;;;;2.45;2.15;;;19.80;69.90;;;;;;5090379;28;20021;-50
2022/06/30 02:59:03;;;;;;;3.15;2.13;;;19.80;70.90;;;;;;5107538;28;20411;-48
2022/06/30 03:01:28;;;;;;;1.75;1.65;;;19.80;71.80;;;;;;5085587;28;20085;-49
2022/06/30 03:03:54;;;;;;;2.22;1.90;;;19.80;71.90;;;;;;5069634;28;20485;-52
2022/06/30 03:06:19;;;;;;;2.40;1.80;;;19.80;72.80;;;;;;5108568;28;20055;-51
2022/06/30 03:08:45;;;;;;;2.30;1.80;;;19.80;72.70;;;;;;5070735;28;20037;-49
2022/06/30 03:11:16;;;;;;;2.70;2.20;;;19.80;73.60;;;;;;5108284;28;20027;-50
2022/06/30 03:13:44;;;;;;;2.03;1.77;;;19.70;74.80;;;;;;5068216;28;20476;-51
2022/06/30 03:16:09;;;;;;;2.67;2.15;;;19.70;74.90;;;;;;5109101;28;20570;-52
2022/06/30 03:18:35;;;;;;;3.45;2.40;;;19.70;74.40;;;;;;5072180;28;20112;-49
2022/06/30 03:21:00;;;;;;;3.22;2.15;;;19.70;75.30;;;;;;5108222;28;20495;-52
2022/06/30 03:23:26;;;;;;;2.60;2.40;;;19.80;75.20;;;;;;5073492;28;20059;-50
2022/06/30 03:25:52;;;;;;;3.13;2.35;;;19.80;75.20;;;;;;5106381;28;20027;-51
2022/06/30 03:28:18;;;;;;;3.88;2.05;;;19.80;75.40;;;;;;5080628;28;20061;-50
2022/06/30 03:30:45;;;;;;;4.57;2.13;;;19.80;75.20;;;;;;5108353;28;20030;-48
2022/06/30 03:33:11;;;;;;;4.88;1.90;;;19.90;75.00;;;;;;5075514;28;20389;-50
2022/06/30 03:35:36;;;;;;;2.45;1.92;;;19.80;74.70;;;;;;5108080;28;20049;-47
2022/06/30 03:38:04;;;;;;;2.58;2.38;;;19.90;74.70;;;;;;5097940;28;20110;-51
2022/06/30 03:40:29;;;;;;;4.25;2.50;;;19.90;74.70;;;;;;5089459;28;20032;-48
2022/06/30 03:42:55;;;;;;;2.78;2.40;;;19.90;74.40;;;;;;5106140;28;20487;-47
2022/06/30 03:45:20;;;;;;;3.72;2.80;;;19.90;74.80;;;;;;5089525;28;20027;-49
2022/06/30 03:47:46;;;;;;;2.55;2.35;;;19.90;73.70;;;;;;5106263;28;20318;-51
2022/06/30 03:50:11;;;;;;;5.25;2.65;;;19.80;73.50;;;;;;5089352;28;20084;-50
2022/06/30 03:52:37;;;;;;;5.80;3.05;;;19.90;72.80;;;;;;5106301;28;20031;-50
2022/06/30 03:55:03;;;;;;;3.55;2.60;;;19.90;73.80;;;;;;5109226;28;20104;-47
2022/06/30 03:57:28;;;;;;;5.63;2.85;;;19.80;72.70;;;;;;5092279;28;20062;-51
2022/06/30 03:59:54;;;;;;;4.28;2.83;;;19.90;73.60;;;;;;5099309;28;20106;-47
2022/06/30 04:02:19;;;;;;;5.47;2.83;;;19.90;72.70;;;;;;5090653;28;20147;-50
2022/06/30 04:04:45;;;;;;;5.40;2.67;;;19.90;72.60;;;;;;5108850;28;20399;-48
2022/06/30 04:07:10;;;;;;;5.25;2.88;;;19.90;73.50;;;;;;5090169;28;20063;-51
2022/06/30 04:09:36;;;;;;;10.50;3.30;;;19.90;73.60;;;;;;5109265;28;20039;-52
2022/06/30 04:12:01;;;;;;;7.45;3.05;;;19.90;74.00;;;;;;5086408;28;20408;-49
2022/06/30 04:14:27;;;;;;;5.38;3.63;;;19.80;72.90;;;;;;5113306;28;20036;-48
2022/06/30 04:16:52;;;;;;;4.72;3.20;;;19.80;72.70;;;;;;5093812;28;20044;-48
2022/06/30 04:19:18;;;;;;;6.72;3.20;;;19.90;72.80;;;;;;5111342;28;20490;-51
2022/06/30 04:21:43;;;;;;;3.20;2.83;;;19.90;73.50;;;;;;5093443;28;20048;-49
2022/06/30 04:24:09;;;;;;;6.88;3.58;;;20.00;73.20;;;;;;5086121;28;20081;-50
2022/06/30 04:26:34;;;;;;;3.45;3.15;;;19.90;72.80;;;;;;5105114;28;20107;-56
2022/06/30 04:29:00;;;;;;;3.63;2.63;;;19.90;72.40;;;;;;5075900;28;20622;-50
2022/06/30 04:34:09;;;;;;;3.78;2.92;;;19.90;72.50;;;;;;5070887;28;20094;-48
2022/06/30 04:36:35;;;;;;;2.72;2.45;;;19.90;73.20;;;;;;5111888;28;20577;-48
2022/06/30 04:39:00;;;;;;;6.40;3.08;;;19.90;72.80;;;;;;5074109;28;20111;-50
2022/06/30 04:41:26;;;;;;;5.15;2.80;;;19.90;74.90;;;;;;5111611;28;20031;-48
2022/06/30 04:43:57;;;;;;;3.30;2.65;;;19.90;73.70;;;;;;5075442;28;20024;-48
2022/06/30 04:46:23;;;;;;;4.00;2.97;;;19.80;76.30;;;;;;5112189;28;20031;-52
2022/06/30 04:48:49;;;;;;;3.92;3.42;;;19.80;75.50;;;;;;5076012;28;20535;-49
2022/06/30 04:51:15;;;;;;;4.85;3.60;;;19.80;80.80;;;;;;5111585;28;20031;-51
2022/06/30 04:53:40;;;;;;;3.13;2.85;;;19.70;82.70;;;;;;5076776;28;20036;-54
2022/06/30 04:56:07;;;;;;;4.32;3.88;;;19.70;84.20;;;;;;5091318;28;20061;-50
2022/06/30 04:58:33;;;;;;;6.00;3.55;;;19.60;85.40;;;;;;5077666;28;20115;-53
2022/06/30 05:00:58;;;;;;;5.38;3.97;;;19.60;86.40;;;;;;5103619;28;20106;-47
2022/06/30 05:03:24;;;;;;;4.53;3.58;;;19.50;90.20;;;;;;5079737;28;20122;-51
2022/06/30 05:05:49;;;;;;;4.43;3.90;;;19.50;90.10;;;;;;5111019;28;20041;-52
2022/06/30 05:08:15;;;;;;;5.97;4.30;;;19.40;92.10;;;;;;5100455;28;20412;-53
2022/06/30 05:10:40;;;;;;;5.50;4.35;;;19.30;92.30;;;;;;5092682;28;20031;-51
2022/06/30 05:13:07;;;;;;;4.63;4.13;;;19.20;95.20;;;;;;5105245;28;20097;-54
2022/06/30 05:15:36;;;;;;;4.95;3.88;;;19.20;95.30;;;;;;5092205;28;20028;-55
2022/06/30 05:18:01;;;;;;;4.78;3.80;;;19.10;94.30;;;;;;5109862;28;20084;-56
2022/06/30 05:20:27;;;;;;;5.63;4.32;;;19.20;95.90;;;;;;5112266;28;20450;-56
2022/06/30 05:22:52;;;;;;;5.30;4.80;;;19.10;98.40;;;;;;5096550;28;20027;-54
2022/06/30 05:28:03;;;;;;;6.97;4.13;;;19.00;98.60;;;;;;5096360;28;20546;-55
2022/06/30 05:30:28;;;;;;;9.02;4.47;;;19.00;97.70;;;;;;5095315;28;20028;-54
2022/06/30 05:32:55;;;;;;;5.97;4.57;;;19.00;99.90;;;;;;5108369;28;20032;-51
2022/06/30 05:35:21;;;;;;;6.35;4.35;;;18.90;99.90;;;;;;5112027;28;20070;-55
2022/06/30 05:37:47;;;;;;;4.10;3.70;;;18.90;99.20;;;;;;5094780;28;20043;-55
2022/06/30 05:40:12;;;;;;;5.03;4.43;;;18.90;99.30;;;;;;5093072;28;20119;-57
2022/06/30 05:42:38;;;;;;;4.95;4.15;;;18.80;99.90;;;;;;5108416;28;20035;-54
2022/06/30 05:45:04;;;;;;;4.78;4.13;;;18.90;99.90;;;;;;5110326;28;20022;-55
2022/06/30 05:47:30;;;;;;;5.55;4.45;;;18.90;99.90;;;;;;5091990;28;20042;-53
2022/06/30 05:49:56;;;;;;;6.43;5.15;;;18.90;99.90;;;;;;5111358;28;20023;-56
2022/06/30 05:52:21;;;;;;;5.85;4.15;;;18.90;99.90;;;;;;5090549;28;20034;-55
2022/06/30 05:54:47;;;;;;;8.00;4.60;;;18.90;99.00;;;;;;5111197;28;20085;-54
2022/06/30 05:57:13;;;;;;;5.88;4.45;;;18.90;99.50;;;;;;5091316;28;20032;-53
2022/06/30 05:59:38;;;;;;;5.53;3.97;;;19.00;99.90;;;;;;5097497;28;20038;-55
2022/06/30 06:02:04;;;;;;;4.93;4.00;;;19.00;99.50;;;;;;5090783;28;20484;-55
2022/06/30 06:04:30;;;;;;;5.03;3.95;;;19.00;99.00;;;;;;5070935;28;20425;-54
2022/06/30 06:06:55;;;;;;;5.80;3.78;;;19.00;98.30;;;;;;5109898;28;20027;-53
2022/06/30 06:09:21;;;;;;;4.30;3.90;;;19.10;98.10;;;;;;5072000;28;20347;-56
2022/06/30 06:11:47;;;;;;;4.78;3.60;;;19.10;97.90;;;;;;5108134;28;20035;-56
2022/06/30 06:14:13;;;;;;;4.95;3.42;;;19.20;97.20;;;;;;5076232;28;20029;-55
2022/06/30 06:16:38;;;;;;;5.85;4.00;;;19.30;96.70;;;;;;5109511;28;20031;-55
2022/06/30 06:19:04;;;;;;;4.57;4.18;;;19.30;97.80;;;;;;5074419;28;20024;-55
2022/06/30 06:21:29;;;;;;;4.47;4.07;;;19.30;96.70;;;;;;5109246;28;20047;-50
2022/06/30 06:23:55;;;;;;;4.15;3.50;;;19.40;96.10;;;;;;5075809;28;20100;-54
2022/06/30 06:26:20;;;;;;;6.63;4.75;;;19.60;95.10;;;;;;5103358;28;20026;-53
2022/06/30 06:31:31;;;;;;;5.60;4.22;;;19.60;95.00;;;;;;5070094;28;20073;-53
2022/06/30 06:33:57;;;;;;;6.20;3.83;;;19.60;95.10;;;;;;5081184;28;20434;-57
2022/06/30 06:36:22;;;;;;;5.50;4.40;;;19.60;95.30;;;;;;5108729;28;20034;-57
2022/06/30 06:38:48;;;;;;;6.93;3.85;;;19.60;95.00;;;;;;5076813;28;20047;-54
2022/06/30 06:41:15;;;;;;;4.10;3.70;;;19.70;94.90;;;;;;5109028;28;20443;-55
2022/06/30 06:43:41;;;;;;;5.97;3.85;;;19.70;94.90;;;;;;5098852;27;20043;-55
2022/06/30 06:46:06;;;;;;;7.43;4.57;;;19.70;94.30;;;;;;5090380;28;20027;-54
2022/06/30 06:48:32;;;;;;;7.03;4.07;;;19.70;94.60;;;;;;5107373;28;20043;-55
2022/06/30 06:50:57;;;;;;;7.75;4.20;;;19.70;94.70;;;;;;5090326;28;20455;-55
2022/06/30 06:53:23;;;;;;;5.00;4.07;;;19.80;94.40;;;;;;5107288;28;20092;-54
2022/06/30 06:55:48;;;;;;;5.95;4.57;;;19.80;93.90;;;;;;5090246;28;20404;-54
2022/06/30 06:58:14;;;;;;;6.57;4.30;;;19.80;93.80;;;;;;5107023;28;20055;-55
2022/06/30 07:00:40;;;;;;;4.70;4.25;;;19.90;93.80;;;;;;5089821;28;20028;-50
2022/06/30 07:03:05;;;;;;;5.28;4.10;;;20.10;93.30;;;;;;5107180;28;20058;-56
2022/06/30 07:05:31;;;;;;;4.60;3.60;;;20.20;92.30;;;;;;5109946;28;20028;-53
2022/06/30 07:08:01;;;;;;;4.45;4.05;;;20.40;91.90;;;;;;5092068;28;20450;-54
2022/06/30 07:10:27;;;;;;;5.55;4.28;;;20.60;90.30;;;;;;5109809;28;20024;-53
2022/06/30 07:12:54;;;;;;;4.78;3.50;;;20.70;90.00;;;;;;5090928;28;20081;-51
2022/06/30 07:15:21;;;;;;;4.10;3.63;;;20.80;89.60;;;;;;5109871;28;20026;-56
2022/06/30 07:17:47;;;;;;;4.68;3.45;;;20.80;88.20;;;;;;5089595;28;20032;-56
2022/06/30 07:20:13;;;;;;;6.22;3.63;;;20.90;88.20;;;;;;5109604;28;20088;-55
2022/06/30 07:22:38;;;;;;;4.20;3.80;;;20.90;88.70;;;;;;5088392;28;20454;-56
2022/06/30 07:25:05;;;;;;;5.20;3.53;;;21.00;87.50;;;;;;5109601;28;20487;-56
2022/06/30 07:27:31;;;;;;;3.75;3.42;;;21.30;85.20;;;;;;5105171;28;20027;-55
2022/06/30 07:29:56;;;;;;;4.70;3.95;;;21.60;83.30;;;;;;5107148;28;20059;-53
2022/06/30 07:32:22;;;;;;;4.28;3.70;;;22.10;73.40;;;;;;5089465;28;20036;-56
2022/06/30 07:34:47;;;;;;;10.65;4.80;;;22.40;73.30;;;;;;5069246;28;20496;-54
2022/06/30 07:37:13;;;;;;;5.25;3.88;;;22.30;68.90;;;;;;5107866;28;20032;-52
2022/06/30 07:39:39;;;;;;;4.78;4.03;;;22.30;71.10;;;;;;5070125;28;20466;-55
2022/06/30 07:42:04;;;;;;;5.00;3.92;;;22.30;73.40;;;;;;5107789;28;20035;-56
2022/06/30 07:44:30;;;;;;;5.03;3.60;;;22.30;71.80;;;;;;5071474;28;20107;-55
2022/06/30 07:46:55;;;;;;;4.90;4.35;;;22.60;72.10;;;;;;5106899;28;20088;-52
2022/06/30 07:49:21;;;;;;;11.38;4.88;;;22.70;65.80;;;;;;5072949;28;20482;-55
2022/06/30 07:51:48;;;;;;;5.40;3.88;;;22.60;68.10;;;;;;5107867;28;20114;-54
2022/06/30 07:54:13;;;;;;;6.60;4.80;;;22.70;70.50;;;;;;5074047;28;20032;-53
2022/06/30 07:56:39;;;;;;;5.63;5.00;;;22.60;70.40;;;;;;5107751;28;20205;-53
2022/06/30 07:59:04;;;;;;;5.03;4.35;;;22.30;71.80;;;;;;5075425;28;20468;-56
2022/06/30 08:01:30;;;;;;;5.50;4.40;;;22.30;73.00;;;;;;5100238;28;20101;-54
2022/06/30 08:03:55;;;;;;;8.45;5.57;;;22.20;71.80;;;;;;5097523;28;20432;-51
2022/06/30 08:06:23;;;;;;;8.13;4.90;;;22.10;75.10;;;;;;5089182;28;20114;-53
2022/06/30 08:08:49;;;;;;;6.75;4.85;;;22.10;75.60;;;;;;5106262;28;20464;-56
2022/06/30 08:11:14;;;;;;;9.43;5.82;;;22.20;76.10;;;;;;5089465;28;20115;-53
2022/06/30 08:13:40;;;;;;;6.43;4.80;;;22.30;74.20;;;;;;5096463;28;20422;-56
2022/06/30 08:16:05;;;;;;;5.38;4.45;;;22.60;73.60;;;;;;5089356;28;20056;-54
2022/06/30 08:18:31;;;;;;;10.45;5.85;;;22.90;70.40;;;;;;5106084;28;20107;-51
2022/06/30 08:20:56;;;;;;;7.80;6.00;;;23.10;66.70;;;;;;5108669;28;20494;-50
2022/06/30 08:23:23;;;;;;;8.07;5.60;;;23.10;64.40;;;;;;5092167;28;20028;-54
2022/06/30 08:25:48;;;;;;;6.32;4.68;;;23.30;67.30;;;;;;5107363;28;20233;-55
2022/06/30 08:28:14;;;;;;;4.35;3.95;;;23.70;65.60;;;;;;5096925;28;20425;-55
2022/06/30 08:30:39;;;;;;;8.50;4.35;;;24.30;62.90;;;;;;5068181;28;20056;-53
2022/06/30 08:33:05;;;;;;;7.25;5.40;;;24.60;60.90;;;;;;5105845;28;20577;-56
2022/06/30 08:35:30;;;;;;;8.82;5.45;;;24.80;57.20;;;;;;5108620;28;20035;-53
2022/06/30 08:37:56;;;;;;;9.63;7.13;;;24.80;58.00;;;;;;5087821;28;20028;-52
2022/06/30 08:43:29;;;;;;;6.45;5.00;;;24.20;56.50;;;;;;5043486;28;20041;-53
2022/06/30 08:45:57;;;;;;;7.38;6.30;;;23.90;61.40;;;;;;5045351;28;20171;-56
2022/06/30 08:48:22;;;;;;;9.15;6.38;;;23.90;60.90;;;;;;5073245;28;20037;-53
2022/06/30 08:50:49;;;;;;;6.57;5.90;;;23.60;63.00;;;;;;5107221;28;20100;-53
2022/06/30 08:53:22;;;;;;;8.88;6.38;;;23.70;63.40;;;;;;5090074;28;20034;-54
2022/06/30 08:55:48;;;;;;;5.75;5.20;;;23.80;62.40;;;;;;5108444;28;20433;-50
2022/06/30 08:58:17;;;;;;;6.43;5.82;;;23.90;60.80;;;;;;5090047;28;20031;-53
2022/06/30 09:00:43;;;;;;;7.65;5.22;;;24.20;60.70;;;;;;5095506;28;20396;-53
2022/06/30 09:03:10;;;;;;;6.32;4.78;;;24.50;59.90;;;;;;5109534;28;20034;-54
2022/06/30 09:05:36;;;;;;;9.05;6.32;;;24.90;58.20;;;;;;5112109;28;20081;-54
2022/06/30 09:08:02;;;;;;;6.85;6.15;;;25.00;53.70;;;;;;5091417;27;20032;-53
2022/06/30 09:10:29;;;;;;;5.97;5.10;;;25.00;53.70;;;;;;5112145;28;20031;-56
2022/06/30 09:13:04;;;;;;;6.90;5.15;;;25.30;54.90;;;;;;5089999;28;20032;-52
2022/06/30 09:15:31;;;;;;;7.25;6.32;;;25.60;53.80;;;;;;5071309;28;20417;-59
2022/06/30 09:17:58;;;;;;;6.22;5.47;;;25.80;51.40;;;;;;5108812;28;20035;-54
2022/06/30 09:20:37;;;;;;;5.25;4.75;;;25.90;49.20;;;;;;5111802;28;20020;-47
2022/06/30 09:23:19;;;;;;;7.32;6.07;;;26.00;47.40;;;;;;5071210;28;20473;-49
2022/06/30 09:25:50;;;;;;;6.38;5.50;;;25.70;47.20;;;;;;5110976;28;20497;-47
2022/06/30 09:28:35;;;;;;;6.82;5.45;;;25.50;48.10;;;;;;5101476;28;20036;-46
2022/06/30 09:31:01;;;;;;;5.05;4.60;;;25.20;50.80;;;;;;5110065;28;20028;-46
2022/06/30 09:33:36;;;;;;;6.25;5.65;;;25.10;51.80;;;;;;5093653;28;20035;-47
2022/06/30 09:36:19;;;;;;;7.63;5.13;;;25.10;50.40;;;;;;5111572;28;20031;-48
2022/06/30 09:39:05;;;;;;;5.75;5.25;;;25.10;50.50;;;;;;5095690;28;20066;-46
2022/06/30 09:41:38;;;;;;;5.53;5.03;;;25.10;50.00;;;;;;5091013;28;20457;-47
2022/06/30 09:44:19;;;;;;;5.57;4.88;;;25.10;50.50;;;;;;5086656;28;20080;-47
2022/06/30 09:47:08;;;;;;;6.00;5.40;;;24.90;51.50;;;;;;5070795;28;20111;-46
2022/06/30 09:49:39;;;;;;;5.68;5.10;;;25.00;51.30;;;;;;5068799;28;20027;-47
2022/06/30 09:52:21;;;;;;;5.10;4.60;;;24.90;52.50;;;;;;5070874;28;20024;-48
2022/06/30 09:54:54;;;;;;;7.72;6.25;;;25.30;51.50;;;;;;5068734;28;20036;-48
2022/06/30 09:57:22;;;;;;;6.40;4.93;;;25.20;49.40;;;;;;5110314;28;20020;-51
2022/06/30 10:00:04;;;;;;;7.93;5.03;;;25.40;51.00;;;;;;5076181;28;20526;-46
2022/06/30 10:02:35;;;;;;;6.40;5.80;;;25.80;48.60;;;;;;5111115;28;20043;-46
2022/06/30 10:05:03;;;;;;;5.97;5.40;;;26.00;48.40;;;;;;5068435;28;20166;-47
2022/06/30 10:07:29;;;;;;;6.53;5.93;;;26.00;46.20;;;;;;5110131;28;20035;-47
2022/06/30 10:09:55;;;;;;;6.03;5.32;;;26.10;45.90;;;;;;5073072;28;20036;-50
2022/06/30 10:12:25;;;;;;;6.45;5.35;;;26.40;45.90;;;;;;5103161;28;20403;-49
2022/06/30 10:14:52;;;;;;;7.63;5.57;;;26.70;43.50;;;;;;5079051;28;20048;-51
2022/06/30 10:17:21;;;;;;;5.95;4.88;;;26.80;43.40;;;;;;5109991;28;20024;-47
2022/06/30 10:19:48;;;;;;;4.93;4.50;;;26.90;43.30;;;;;;5074533;27;20033;-47
2022/06/30 10:22:15;;;;;;;5.95;4.20;;;27.30;41.20;;;;;;5109623;28;20020;-48
2022/06/30 10:24:41;;;;;;;5.55;4.18;;;27.70;40.80;;;;;;5075871;28;20068;-46
2022/06/30 10:27:14;;;;;;;4.80;4.30;;;28.00;39.10;;;;;;5097169;28;20047;-47
2022/06/30 10:29:45;;;;;;;4.22;3.85;;;28.40;38.50;;;;;;5067923;28;20064;-48
2022/06/30 10:32:27;;;;;;;6.88;5.78;;;28.70;34.20;;;;;;5069991;28;20480;-48
2022/06/30 10:35:15;;;;;;;7.40;5.40;;;27.70;31.20;;;;;;5067926;28;20036;-48
2022/06/30 10:37:51;;;;;;;5.90;4.97;;;26.90;36.00;;;;;;5070080;28;20024;-47
2022/06/30 10:40:28;;;;;;;5.68;5.15;;;26.40;40.40;;;;;;5067914;28;20443;-46
2022/06/30 10:42:58;;;;;;;5.82;5.05;;;26.40;41.60;;;;;;5069849;28;20041;-48
2022/06/30 10:45:26;;;;;;;5.13;4.70;;;26.50;40.50;;;;;;5070537;28;20493;-47
2022/06/30 10:48:06;;;;;;;4.70;4.30;;;26.50;40.40;;;;;;5108822;28;20505;-47
2022/06/30 10:50:41;;;;;;;5.47;4.97;;;26.60;38.80;;;;;;5068682;28;20056;-49
2022/06/30 10:53:08;;;;;;;5.03;4.63;;;26.60;40.10;;;;;;5069615;28;20485;-47
2022/06/30 10:55:46;;;;;;;5.88;5.30;;;26.50;40.20;;;;;;5068226;28;20036;-49
2022/06/30 10:58:12;;;;;;;6.97;6.28;;;26.60;40.10;;;;;;5109615;28;20432;-49
2022/06/30 11:00:48;;;;;;;7.10;6.40;;;26.30;41.50;;;;;;5088445;28;20108;-46
2022/06/30 11:03:29;;;;;;;7.25;6.32;;;26.10;41.50;;;;;;5109420;28;20119;-46
2022/06/30 11:05:56;;;;;;;5.72;5.22;;;26.00;41.30;;;;;;5069302;28;20052;-45
2022/06/30 11:08:39;;;;;;;8.43;6.75;;;26.10;41.70;;;;;;5106670;28;20032;-46
2022/06/30 11:11:20;;;;;;;7.00;6.35;;;26.20;41.80;;;;;;5109844;28;20080;-45
2022/06/30 11:13:46;;;;;;;6.80;6.20;;;26.10;41.70;;;;;;5091200;28;20111;-46
2022/06/30 11:16:16;;;;;;;6.03;5.47;;;25.90;42.30;;;;;;5110020;28;20032;-47
2022/06/30 11:18:43;;;;;;;6.30;5.53;;;26.20;42.40;;;;;;5091109;28;20019;-46
2022/06/30 11:21:09;;;;;;;5.10;4.60;;;26.50;40.80;;;;;;5109685;28;20091;-45
2022/06/30 11:23:46;;;;;;;6.10;5.07;;;26.90;39.60;;;;;;5089716;28;20039;-46
2022/06/30 11:29:02;;;;;;;6.65;5.70;;;27.20;38.10;;;;;;5078253;28;20093;-47
2022/06/30 11:31:33;;;;;;;6.25;5.65;;;27.20;38.80;;;;;;5098919;28;20093;-47
2022/06/30 11:34:06;;;;;;;8.30;6.47;;;26.90;39.00;;;;;;5079687;28;20377;-46
2022/06/30 11:36:34;;;;;;;6.75;6.15;;;26.70;38.80;;;;;;5086695;28;20035;-47
2022/06/30 11:39:05;;;;;;;7.53;6.82;;;26.90;38.60;;;;;;5086710;28;20448;-48
2022/06/30 11:44:17;;;;;;;6.72;5.95;;;26.70;40.40;;;;;;5083403;28;20047;-48
2022/06/30 11:46:59;;;;;;;7.18;6.47;;;26.90;39.00;;;;;;5076364;28;20028;-46
2022/06/30 11:49:27;;;;;;;6.68;6.07;;;27.00;37.20;;;;;;5074313;28;20032;-45
2022/06/30 11:51:54;;;;;;;7.25;6.55;;;27.10;37.20;;;;;;5080954;28;20036;-47
2022/06/30 11:54:26;;;;;;;8.93;5.72;;;26.90;37.70;;;;;;5082253;28;20016;-48
2022/06/30 11:56:54;;;;;;;7.15;6.03;;;26.70;38.40;;;;;;5107838;28;20031;-46
2022/06/30 11:59:20;;;;;;;6.22;5.72;;;26.70;38.30;;;;;;5092798;28;20050;-48
2022/06/30 12:02:00;;;;;;;5.88;5.38;;;26.80;38.10;;;;;;5101499;28;20031;-47
2022/06/30 12:04:26;;;;;;;6.05;5.45;;;26.90;37.80;;;;;;5095082;28;20608;-50
2022/06/30 12:06:51;;;;;;;7.35;6.38;;;27.10;37.10;;;;;;5089281;28;20039;-46
2022/06/30 12:09:17;;;;;;;7.90;7.22;;;26.90;37.90;;;;;;5106299;28;20484;-46
2022/06/30 12:11:45;;;;;;;8.77;6.20;;;26.80;38.70;;;;;;5107910;28;20023;-48
2022/06/30 12:14:11;;;;;;;7.55;5.43;;;26.80;38.40;;;;;;5105279;28;20054;-47
2022/06/30 12:16:36;;;;;;;6.72;6.13;;;26.90;38.20;;;;;;5109188;28;20048;-48
2022/06/30 12:19:02;;;;;;;8.02;6.95;;;26.70;38.80;;;;;;5091602;28;20034;-49
2022/06/30 12:21:28;;;;;;;6.85;6.13;;;26.70;38.10;;;;;;5108975;28;20031;-46
2022/06/30 12:23:54;;;;;;;7.18;6.50;;;26.80;38.20;;;;;;5090112;28;20026;-48
2022/06/30 12:26:20;;;;;;;6.78;6.10;;;26.90;37.60;;;;;;5103404;28;20017;-46
2022/06/30 12:28:46;;;;;;;7.07;6.38;;;26.90;37.50;;;;;;5095203;28;20056;-47
2022/06/30 12:31:25;;;;;;;7.00;6.38;;;27.10;36.80;;;;;;5068608;28;20102;-46
2022/06/30 12:33:52;;;;;;;6.22;5.63;;;27.20;36.10;;;;;;5072435;28;20036;-50
2022/06/30 12:36:18;;;;;;;8.80;7.10;;;27.10;36.50;;;;;;5113146;27;20020;-45
2022/06/30 12:38:43;;;;;;;6.22;5.55;;;27.00;36.50;;;;;;5092143;28;20141;-46
2022/06/30 12:41:10;;;;;;;6.78;6.18;;;27.20;36.30;;;;;;5112907;28;20101;-46
2022/06/30 12:43:49;;;;;;;7.10;6.47;;;27.40;34.40;;;;;;5090856;28;20017;-49
2022/06/30 12:46:15;;;;;;;6.45;5.85;;;27.10;35.10;;;;;;5072258;28;20020;-48
2022/06/30 12:48:42;;;;;;;5.25;4.85;;;27.10;36.20;;;;;;5109612;28;20063;-46
2022/06/30 12:51:10;;;;;;;6.65;5.97;;;27.40;36.00;;;;;;5111504;28;20426;-49
2022/06/30 12:53:36;;;;;;;6.20;5.70;;;27.60;34.80;;;;;;5092400;28;20028;-47
2022/06/30 12:56:06;;;;;;;7.03;6.32;;;27.70;34.00;;;;;;5100790;28;20097;-46
2022/06/30 12:59:10;;;;;;;7.38;6.50;;;27.40;33.60;;;;;;5082984;28;20415;-48
2022/06/30 13:01:38;;;;;;;7.57;6.88;;;27.10;35.40;;;;;;5084727;28;20044;-47
2022/06/30 13:04:07;;;;;;;6.90;6.30;;;26.50;37.50;;;;;;5088161;28;20055;-46
2022/06/30 13:06:40;;;;;;;6.28;5.68;;;26.60;38.20;;;;;;5077640;28;20610;-48